createdAt,value
2019-01-08T00:01:49.005Z,8.10
2019-01-08T00:04:15.259Z,8.20
2019-01-08T00:06:41.526Z,8.20
2019-01-08T00:09:07.843Z,8.20
2019-01-08T00:11:34.045Z,8.20
2019-01-08T00:14:00.314Z,8.20
2019-01-08T00:16:26.581Z,8.20
2019-01-08T00:18:52.865Z,8.20
2019-01-08T00:21:19.119Z,8.10
2019-01-08T00:23:45.385Z,8.00
2019-01-08T00:26:11.625Z,8.00
2019-01-08T00:28:43.126Z,8.00
2019-01-08T00:31:05.963Z,8.00
2019-01-08T00:33:32.215Z,8.00
2019-01-08T00:35:58.435Z,8.00
2019-01-08T00:38:24.735Z,7.90
2019-01-08T00:40:50.951Z,7.90
2019-01-08T00:43:17.335Z,7.90
2019-01-08T00:45:43.584Z,8.00
2019-01-08T00:48:09.857Z,8.00
2019-01-08T00:50:36.105Z,8.00
2019-01-08T00:53:02.342Z,8.10
2019-01-08T00:55:28.583Z,8.10
2019-01-08T00:57:54.844Z,8.10
2019-01-08T01:00:21.085Z,8.10
2019-01-08T01:02:47.316Z,8.10
2019-01-08T01:05:13.595Z,8.20
2019-01-08T01:07:39.999Z,8.20
2019-01-08T01:10:06.657Z,8.20
2019-01-08T01:12:32.915Z,8.20
2019-01-08T01:14:59.170Z,8.20
2019-01-08T01:17:25.424Z,8.20
2019-01-08T01:19:51.684Z,8.20
2019-01-08T01:22:17.907Z,8.10
2019-01-08T01:24:44.063Z,8.10
2019-01-08T01:27:10.301Z,8.10
2019-01-08T01:29:36.590Z,8.10
2019-01-08T01:32:02.817Z,8.00
2019-01-08T01:34:28.968Z,8.00
2019-01-08T01:36:55.223Z,8.00
2019-01-08T01:39:21.473Z,8.00
2019-01-08T01:41:47.699Z,8.00
2019-01-08T01:44:13.877Z,7.90
2019-01-08T01:46:40.117Z,7.90
2019-01-08T01:49:06.385Z,7.80
2019-01-08T01:51:32.615Z,7.90
2019-01-08T01:53:58.863Z,7.80
2019-01-08T01:56:25.109Z,7.90
2019-01-08T01:58:51.357Z,7.80
2019-01-08T02:01:17.614Z,7.70
2019-01-08T02:03:43.845Z,7.70
2019-01-08T02:06:10.081Z,7.70
2019-01-08T02:08:36.255Z,7.70
2019-01-08T02:11:02.474Z,7.70
2019-01-08T02:13:28.719Z,7.60
2019-01-08T02:15:54.979Z,7.60
2019-01-08T02:18:21.221Z,7.60
2019-01-08T02:20:47.343Z,7.60
2019-01-08T02:23:13.469Z,7.60
2019-01-08T02:25:39.727Z,7.60
2019-01-08T02:28:06.018Z,7.60
2019-01-08T02:30:32.256Z,7.60
2019-01-08T02:32:58.485Z,7.60
2019-01-08T02:35:24.701Z,7.60
2019-01-08T02:37:50.832Z,7.70
2019-01-08T02:40:17.172Z,7.60
2019-01-08T02:42:43.422Z,7.60
2019-01-08T02:45:09.575Z,7.70
2019-01-08T02:47:35.705Z,7.70
2019-01-08T02:50:01.964Z,7.60
2019-01-08T02:52:28.174Z,7.60
2019-01-08T02:54:54.366Z,7.70
2019-01-08T02:57:20.615Z,7.60
2019-01-08T02:59:48.785Z,7.60
2019-01-08T03:02:14.892Z,7.60
2019-01-08T03:04:41.132Z,7.70
2019-01-08T03:07:07.354Z,7.70
2019-01-08T03:09:35.440Z,7.80
2019-01-08T03:12:01.675Z,7.80
2019-01-08T03:14:27.978Z,7.80
2019-01-08T03:16:54.209Z,7.80
2019-01-08T03:19:20.442Z,7.80
2019-01-08T03:21:46.593Z,7.80
2019-01-08T03:24:12.842Z,7.80
2019-01-08T03:26:39.068Z,7.90
2019-01-08T03:29:05.325Z,7.90
2019-01-08T03:31:31.561Z,7.90
2019-01-08T03:33:57.802Z,8.00
2019-01-08T03:36:24.886Z,8.00
2019-01-08T03:38:51.294Z,8.10
2019-01-08T03:41:17.517Z,8.10
2019-01-08T03:43:43.697Z,8.10
2019-01-08T03:46:09.910Z,8.20
2019-01-08T03:48:36.164Z,8.30
2019-01-08T03:51:02.515Z,8.30
2019-01-08T03:53:28.770Z,8.40
2019-01-08T03:55:55.020Z,8.40
2019-01-08T03:58:21.268Z,8.40
2019-01-08T04:00:47.534Z,8.50
2019-01-08T04:03:13.753Z,8.50
2019-01-08T04:05:39.928Z,8.50
2019-01-08T04:08:06.206Z,8.60
2019-01-08T04:10:32.457Z,8.60
2019-01-08T04:12:58.756Z,8.60
2019-01-08T04:15:25.210Z,8.60
2019-01-08T04:17:51.430Z,8.60
2019-01-08T04:20:17.600Z,8.60
2019-01-08T04:22:43.859Z,8.60
2019-01-08T04:25:10.110Z,8.50
2019-01-08T04:27:36.360Z,8.60
2019-01-08T04:30:03.848Z,8.60
2019-01-08T04:32:30.178Z,8.60
2019-01-08T04:34:56.438Z,8.60
2019-01-08T04:37:22.674Z,8.70
2019-01-08T04:39:48.918Z,8.70
2019-01-08T04:42:15.179Z,8.80
2019-01-08T04:44:41.504Z,8.80
2019-01-08T04:47:07.743Z,8.90
2019-01-08T04:49:33.973Z,8.90
2019-01-08T04:52:00.131Z,9.00
2019-01-08T04:54:26.398Z,9.00
2019-01-08T04:56:52.622Z,9.00
2019-01-08T04:59:18.790Z,9.00
2019-01-08T05:01:45.047Z,9.00
2019-01-08T05:04:11.294Z,8.80
2019-01-08T05:06:37.444Z,8.80
2019-01-08T05:09:04.222Z,8.80
2019-01-08T05:11:30.494Z,8.80
2019-01-08T05:13:56.739Z,8.70
2019-01-08T05:16:22.984Z,8.60
2019-01-08T05:18:49.213Z,8.50
2019-01-08T05:21:15.354Z,8.50
2019-01-08T05:23:41.603Z,8.50
2019-01-08T05:26:07.754Z,8.50
2019-01-08T05:28:34.022Z,8.40
2019-01-08T05:31:00.300Z,8.30
2019-01-08T05:33:26.522Z,8.30
2019-01-08T05:35:52.782Z,8.20
2019-01-08T05:38:19.047Z,8.30
2019-01-08T05:40:45.302Z,8.20
2019-01-08T05:43:11.577Z,8.10
2019-01-08T05:45:37.861Z,8.10
2019-01-08T05:48:04.114Z,8.10
2019-01-08T05:50:30.473Z,8.10
2019-01-08T05:52:56.722Z,8.10
2019-01-08T05:55:22.985Z,8.10
2019-01-08T05:57:49.208Z,8.00
2019-01-08T06:00:16.606Z,8.00
2019-01-08T06:02:43.015Z,8.10
2019-01-08T06:05:09.252Z,8.10
2019-01-08T06:07:35.486Z,8.10
2019-01-08T06:10:01.645Z,8.10
2019-01-08T06:12:27.885Z,8.10
2019-01-08T06:14:54.154Z,8.10
2019-01-08T06:17:20.403Z,8.10
2019-01-08T06:19:46.633Z,8.00
2019-01-08T06:22:12.786Z,8.00
2019-01-08T06:24:39.037Z,7.90
2019-01-08T06:27:05.305Z,7.90
2019-01-08T06:29:31.575Z,7.90
2019-01-08T06:31:57.859Z,7.80
2019-01-08T06:34:24.083Z,7.90
2019-01-08T06:36:50.354Z,7.90
2019-01-08T06:39:16.586Z,7.80
2019-01-08T06:41:44.247Z,7.80
2019-01-08T06:44:10.699Z,7.90
2019-01-08T06:46:43.064Z,7.90
2019-01-08T06:49:05.004Z,7.90
2019-01-08T06:51:31.265Z,8.00
2019-01-08T06:53:57.513Z,8.00
2019-01-08T06:56:23.742Z,8.00
2019-01-08T06:58:49.918Z,8.00
2019-01-08T07:01:16.179Z,8.00
2019-01-08T07:03:42.419Z,8.10
2019-01-08T07:06:08.661Z,8.10
2019-01-08T07:08:34.919Z,8.10
2019-01-08T07:11:01.163Z,8.20
2019-01-08T07:13:27.435Z,8.20
2019-01-08T07:15:53.679Z,8.10
2019-01-08T07:18:19.903Z,8.20
2019-01-08T07:20:46.065Z,8.20
2019-01-08T07:23:12.339Z,8.20
2019-01-08T07:25:42.207Z,8.20
2019-01-08T07:28:06.629Z,8.20
2019-01-08T07:30:41.028Z,8.30
2019-01-08T07:33:00.943Z,8.20
2019-01-08T07:35:27.235Z,8.20
2019-01-08T07:37:53.522Z,8.30
2019-01-08T07:40:19.770Z,8.40
2019-01-08T07:42:46.013Z,8.30
2019-01-08T07:45:12.313Z,8.40
2019-01-08T07:47:38.576Z,8.40
2019-01-08T07:50:07.837Z,8.40
2019-01-08T07:52:34.094Z,8.40
2019-01-08T07:55:00.355Z,8.40
2019-01-08T07:57:26.605Z,8.40
2019-01-08T07:59:52.858Z,8.40
2019-01-08T08:02:19.102Z,8.40
2019-01-08T08:04:47.746Z,8.50
2019-01-08T08:07:13.414Z,8.50
2019-01-08T08:09:39.644Z,8.50
2019-01-08T08:12:05.790Z,8.50
2019-01-08T08:14:31.914Z,8.60
2019-01-08T08:16:58.073Z,8.60
2019-01-08T08:19:24.290Z,8.60
2019-01-08T08:21:51.836Z,8.60
2019-01-08T08:24:18.098Z,8.60
2019-01-08T08:26:44.351Z,8.60
2019-01-08T08:29:10.605Z,8.60
2019-01-08T08:31:36.878Z,8.70
2019-01-08T08:34:03.122Z,8.60
2019-01-08T08:36:29.387Z,8.70
2019-01-08T08:38:55.649Z,8.70
2019-01-08T08:41:21.885Z,8.80
2019-01-08T08:43:48.058Z,8.80
2019-01-08T08:46:14.300Z,8.80
2019-01-08T08:48:40.582Z,8.80
2019-01-08T08:51:06.867Z,8.80
2019-01-08T08:53:33.113Z,8.90
2019-01-08T08:55:59.352Z,8.90
2019-01-08T08:58:25.601Z,8.80
2019-01-08T09:00:51.847Z,8.90
2019-01-08T09:03:18.108Z,8.90
2019-01-08T09:05:44.355Z,8.90
2019-01-08T09:08:10.622Z,8.90
2019-01-08T09:10:36.826Z,9.00
2019-01-08T09:13:02.974Z,8.90
2019-01-08T09:15:29.227Z,9.00
2019-01-08T09:17:55.516Z,9.00
2019-01-08T09:20:21.762Z,9.00
2019-01-08T09:22:48.065Z,9.10
2019-01-08T09:25:14.261Z,9.00
2019-01-08T09:27:40.399Z,9.00
2019-01-08T09:30:08.658Z,9.00
2019-01-08T09:32:34.902Z,9.00
2019-01-08T09:35:01.750Z,8.90
2019-01-08T09:37:27.972Z,9.00
2019-01-08T09:39:54.230Z,9.00
2019-01-08T09:42:20.486Z,9.00
2019-01-08T09:44:46.763Z,9.00
2019-01-08T09:47:13.030Z,9.00
2019-01-08T09:49:39.260Z,9.00
2019-01-08T09:52:05.423Z,8.90
2019-01-08T09:54:31.687Z,8.90
2019-01-08T09:56:57.950Z,9.00
2019-01-08T09:59:24.270Z,8.90
2019-01-08T10:01:50.548Z,8.90
2019-01-08T10:04:16.794Z,8.90
2019-01-08T10:06:43.048Z,8.80
2019-01-08T10:09:09.284Z,8.80
2019-01-08T10:11:35.544Z,8.80
2019-01-08T10:14:01.839Z,8.80
2019-01-08T10:16:28.088Z,8.80
2019-01-08T10:18:54.354Z,8.70
2019-01-08T10:21:20.598Z,8.80
2019-01-08T10:23:46.854Z,8.70
2019-01-08T10:26:13.082Z,8.70
2019-01-08T10:28:39.250Z,8.60
2019-01-08T10:31:05.499Z,8.70
2019-01-08T10:33:31.736Z,8.60
2019-01-08T10:35:58.169Z,8.70
2019-01-08T10:38:24.356Z,8.70
2019-01-08T10:40:50.619Z,8.70
2019-01-08T10:43:16.910Z,8.60
2019-01-08T10:45:43.173Z,8.60
2019-01-08T10:48:09.447Z,8.60
2019-01-08T10:50:35.714Z,8.50
2019-01-08T10:53:01.955Z,8.50
2019-01-08T10:55:28.194Z,8.40
2019-01-08T10:57:54.374Z,8.40
2019-01-08T11:00:20.737Z,8.40
2019-01-08T11:02:46.993Z,8.40
2019-01-08T11:05:13.227Z,8.40
2019-01-08T11:07:39.520Z,8.40
2019-01-08T11:10:07.545Z,8.40
2019-01-08T11:12:33.715Z,8.50
2019-01-08T11:14:59.936Z,8.40
2019-01-08T11:17:26.187Z,8.50
2019-01-08T11:19:52.322Z,8.40
2019-01-08T11:22:18.573Z,8.50
2019-01-08T11:24:44.825Z,8.50
2019-01-08T11:27:11.063Z,8.50
2019-01-08T11:29:37.373Z,8.50
2019-01-08T11:32:03.653Z,8.50
2019-01-08T11:34:29.903Z,8.50
2019-01-08T11:36:56.162Z,8.60
2019-01-08T11:39:22.509Z,8.50
2019-01-08T11:41:48.778Z,8.60
2019-01-08T11:44:15.055Z,8.60
2019-01-08T11:46:41.316Z,8.60
2019-01-08T11:49:07.599Z,8.60
2019-01-08T11:51:33.842Z,8.60
2019-01-08T11:54:00.103Z,8.60
2019-01-08T11:56:26.348Z,8.70
2019-01-08T11:58:52.623Z,8.70
2019-01-08T12:01:18.883Z,8.60
2019-01-08T12:03:45.175Z,8.60
2019-01-08T12:06:11.409Z,8.60
2019-01-08T12:08:37.699Z,8.70
2019-01-08T12:11:03.963Z,8.60
2019-01-08T12:13:30.216Z,8.60
2019-01-08T12:15:56.377Z,8.60
2019-01-08T12:18:22.634Z,8.60
2019-01-08T12:20:48.910Z,8.50
2019-01-08T12:23:15.191Z,8.50
2019-01-08T12:25:41.437Z,8.50
2019-01-08T12:28:07.677Z,8.60
2019-01-08T12:30:33.923Z,8.60
2019-01-08T12:33:00.157Z,8.50
2019-01-08T12:35:26.432Z,8.60
2019-01-08T12:37:52.668Z,8.60
2019-01-08T12:40:18.915Z,8.50
2019-01-08T12:42:45.153Z,8.60
2019-01-08T12:45:11.437Z,8.60
2019-01-08T12:47:37.720Z,8.60
2019-01-08T12:50:05.754Z,8.60
2019-01-08T12:52:32.012Z,8.60
2019-01-08T12:54:58.249Z,8.50
2019-01-08T12:57:24.496Z,8.50
2019-01-08T12:59:50.756Z,8.60
2019-01-08T13:02:17.009Z,8.60
2019-01-08T13:04:43.231Z,8.60
2019-01-08T13:07:09.502Z,8.50
2019-01-08T13:09:35.771Z,8.50
2019-01-08T13:12:02.012Z,8.50
2019-01-08T13:14:28.259Z,8.50
2019-01-08T13:16:54.512Z,8.50
2019-01-08T13:19:20.768Z,8.50
2019-01-08T13:21:47.010Z,8.50
2019-01-08T13:24:13.283Z,8.60
2019-01-08T13:26:39.530Z,8.60
2019-01-08T13:29:05.780Z,8.50
2019-01-08T13:31:32.018Z,8.50
2019-01-08T13:33:59.749Z,8.50
2019-01-08T13:36:26.131Z,8.50
2019-01-08T13:38:52.368Z,8.40
2019-01-08T13:41:18.608Z,8.40
2019-01-08T13:43:44.897Z,8.40
2019-01-08T13:46:11.169Z,8.40
2019-01-08T13:48:37.423Z,8.30
2019-01-08T13:51:03.691Z,8.30
2019-01-08T13:53:29.945Z,8.40
2019-01-08T13:55:56.209Z,8.40
2019-01-08T13:58:22.503Z,8.40
2019-01-08T14:00:48.745Z,8.40
2019-01-08T14:03:15.026Z,8.40
2019-01-08T14:05:41.253Z,8.50
2019-01-08T14:08:07.422Z,8.50
2019-01-08T14:10:33.671Z,8.60
2019-01-08T14:12:59.970Z,8.50
2019-01-08T14:15:26.277Z,8.50
2019-01-08T14:17:52.566Z,8.50
2019-01-08T14:20:18.794Z,8.50
2019-01-08T14:22:45.039Z,8.60
2019-01-08T14:25:11.196Z,8.50
2019-01-08T14:27:37.461Z,8.60
2019-01-08T14:30:07.092Z,8.60
2019-01-08T14:32:40.572Z,8.60
2019-01-08T14:35:01.521Z,8.60
2019-01-08T14:37:27.780Z,8.60
2019-01-08T14:39:54.158Z,8.50
2019-01-08T14:42:20.399Z,8.60
2019-01-08T14:44:46.673Z,8.50
2019-01-08T14:47:12.938Z,8.50
2019-01-08T14:49:39.190Z,8.50
2019-01-08T14:52:05.457Z,8.50
2019-01-08T14:54:31.765Z,8.50
2019-01-08T14:56:58.017Z,8.50
2019-01-08T14:59:26.381Z,8.60
2019-01-08T15:01:52.294Z,8.60
2019-01-08T15:04:18.440Z,8.60
2019-01-08T15:06:44.691Z,8.60
2019-01-08T15:09:10.938Z,8.50
2019-01-08T15:11:37.178Z,8.60
2019-01-08T15:14:03.438Z,8.50
2019-01-08T15:16:29.708Z,8.60
2019-01-08T15:18:55.942Z,8.50
2019-01-08T15:21:22.943Z,8.50
2019-01-08T15:23:49.250Z,8.50
2019-01-08T15:26:15.478Z,8.50
2019-01-08T15:28:41.758Z,8.40
2019-01-08T15:31:08.020Z,8.50
2019-01-08T15:33:34.262Z,8.60
2019-01-08T15:36:00.478Z,8.60
2019-01-08T15:38:26.654Z,8.60
2019-01-08T15:40:52.810Z,8.60
2019-01-08T15:43:19.087Z,8.60
2019-01-08T15:45:45.334Z,8.60
2019-01-08T15:48:11.594Z,8.60
2019-01-08T15:50:37.860Z,8.60
2019-01-08T15:53:04.134Z,8.60
2019-01-08T15:55:30.374Z,8.60
2019-01-08T15:57:56.546Z,8.60
2019-01-08T16:00:22.780Z,8.60
2019-01-08T16:02:49.033Z,8.70
2019-01-08T16:05:15.288Z,8.70
2019-01-08T16:07:41.449Z,8.70
2019-01-08T16:10:07.596Z,8.70
2019-01-08T16:12:33.875Z,8.70
2019-01-08T16:15:00.138Z,8.70
2019-01-08T16:17:26.412Z,8.80
2019-01-08T16:19:52.736Z,8.70
2019-01-08T16:22:19.032Z,8.70
2019-01-08T16:24:45.328Z,8.60
2019-01-08T16:27:11.564Z,8.60
2019-01-08T16:29:37.836Z,8.70
2019-01-08T16:32:04.078Z,8.70
2019-01-08T16:34:30.397Z,8.70
2019-01-08T16:36:56.623Z,8.70
2019-01-08T16:39:22.896Z,8.70
2019-01-08T16:41:49.160Z,8.80
2019-01-08T16:44:15.431Z,8.80
2019-01-08T16:46:41.684Z,8.70
2019-01-08T16:49:07.991Z,8.70
2019-01-08T16:51:34.251Z,8.70
2019-01-08T16:54:00.557Z,8.70
2019-01-08T16:56:26.775Z,8.80
2019-01-08T16:58:53.112Z,8.80
2019-01-08T17:01:19.295Z,8.70
2019-01-08T17:03:45.662Z,8.70
2019-01-08T17:06:11.914Z,8.70
2019-01-08T17:08:38.191Z,8.70
2019-01-08T17:11:04.417Z,8.60
2019-01-08T17:13:30.689Z,8.60
2019-01-08T17:15:56.942Z,8.70
2019-01-08T17:18:23.287Z,8.60
2019-01-08T17:20:49.616Z,8.50
2019-01-08T17:23:15.866Z,8.60
2019-01-08T17:25:47.763Z,8.60
2019-01-08T17:28:10.199Z,8.50
2019-01-08T17:30:36.452Z,8.50
2019-01-08T17:33:02.710Z,8.50
2019-01-08T17:35:29.048Z,8.50
2019-01-08T17:37:55.461Z,8.50
2019-01-08T17:40:21.695Z,8.50
2019-01-08T17:42:47.934Z,8.50
2019-01-08T17:45:14.087Z,8.60
2019-01-08T17:47:40.462Z,8.60
2019-01-08T17:50:06.685Z,8.60
2019-01-08T17:52:33.012Z,8.70
2019-01-08T17:54:59.281Z,8.70
2019-01-08T17:57:25.554Z,8.70
2019-01-08T17:59:51.701Z,8.70
2019-01-08T18:02:17.935Z,8.70
2019-01-08T18:04:44.230Z,8.70
2019-01-08T18:07:10.495Z,8.70
2019-01-08T18:09:36.765Z,8.60
2019-01-08T18:12:03.006Z,8.60
2019-01-08T18:14:29.259Z,8.50
2019-01-08T18:16:55.504Z,8.50
2019-01-08T18:19:21.783Z,8.60
2019-01-08T18:21:48.042Z,8.50
2019-01-08T18:24:14.312Z,8.50
2019-01-08T18:26:40.579Z,8.50
2019-01-08T18:29:06.846Z,8.50
2019-01-08T18:31:33.103Z,8.40
2019-01-08T18:33:59.375Z,8.40
2019-01-08T18:36:25.612Z,8.40
2019-01-08T18:38:51.862Z,8.40
2019-01-08T18:41:18.216Z,8.30
2019-01-08T18:43:44.443Z,8.30
2019-01-08T18:46:10.791Z,8.30
2019-01-08T18:48:37.089Z,8.20
2019-01-08T18:51:03.449Z,8.20
2019-01-08T18:53:29.713Z,8.20
2019-01-08T18:55:55.970Z,8.20
2019-01-08T18:58:22.260Z,8.20
2019-01-08T19:00:48.511Z,8.20
2019-01-08T19:03:14.763Z,8.20
2019-01-08T19:05:41.002Z,8.10
2019-01-08T19:08:07.262Z,8.20
2019-01-08T19:10:33.515Z,8.20
2019-01-08T19:12:59.698Z,8.10
2019-01-08T19:15:25.958Z,8.20
2019-01-08T19:17:52.220Z,8.10
2019-01-08T19:20:18.400Z,8.20
2019-01-08T19:22:44.746Z,8.30
2019-01-08T19:25:11.001Z,8.30
2019-01-08T19:27:37.233Z,8.30
2019-01-08T19:30:06.286Z,8.30
2019-01-08T19:32:32.515Z,8.30
2019-01-08T19:34:58.762Z,8.30
2019-01-08T19:37:25.086Z,8.40
2019-01-08T19:39:51.383Z,8.40
2019-01-08T19:42:17.615Z,8.30
2019-01-08T19:44:43.880Z,8.20
2019-01-08T19:47:10.108Z,8.20
2019-01-08T19:49:36.381Z,8.10
2019-01-08T19:52:02.620Z,8.10
2019-01-08T19:54:28.872Z,8.00
2019-01-08T19:56:55.045Z,8.00
2019-01-08T19:59:21.301Z,8.00
2019-01-08T20:01:47.544Z,7.90
2019-01-08T20:04:17.973Z,7.90
2019-01-08T20:06:41.864Z,7.90
2019-01-08T20:09:08.142Z,7.90
2019-01-08T20:11:34.370Z,7.90
2019-01-08T20:14:00.558Z,7.90
2019-01-08T20:16:26.904Z,7.80
2019-01-08T20:18:53.160Z,7.80
2019-01-08T20:21:19.425Z,7.80
2019-01-08T20:23:45.700Z,7.70
2019-01-08T20:26:11.947Z,7.80
2019-01-08T20:28:38.196Z,7.80
2019-01-08T20:31:04.368Z,7.70
2019-01-08T20:33:30.656Z,7.70
2019-01-08T20:35:59.012Z,7.70
2019-01-08T20:38:25.062Z,7.70
2019-01-08T20:40:51.307Z,7.70
2019-01-08T20:43:17.715Z,7.70
2019-01-08T20:45:43.992Z,7.70
2019-01-08T20:48:10.264Z,7.70
2019-01-08T20:50:36.501Z,7.70
2019-01-08T20:53:02.738Z,7.80
2019-01-08T20:55:28.982Z,7.70
2019-01-08T20:57:55.162Z,7.70
2019-01-08T21:00:21.447Z,7.70
2019-01-08T21:02:47.786Z,7.80
2019-01-08T21:05:14.084Z,7.80
2019-01-08T21:07:40.316Z,7.80
2019-01-08T21:10:07.015Z,7.80
2019-01-08T21:12:33.296Z,7.90
2019-01-08T21:14:59.717Z,8.00
2019-01-08T21:17:25.957Z,8.00
2019-01-08T21:19:52.355Z,8.00
2019-01-08T21:22:18.655Z,8.00
2019-01-08T21:24:44.913Z,8.10
2019-01-08T21:27:11.171Z,8.00
2019-01-08T21:29:37.435Z,7.80
2019-01-08T21:32:03.674Z,7.80
2019-01-08T21:34:29.983Z,7.80
2019-01-08T21:36:56.201Z,7.80
2019-01-08T21:39:22.554Z,7.80
2019-01-08T21:41:48.825Z,7.80
2019-01-08T21:44:15.123Z,7.80
2019-01-08T21:46:41.367Z,7.70
2019-01-08T21:49:07.631Z,7.70
2019-01-08T21:51:33.887Z,7.70
2019-01-08T21:54:00.158Z,7.80
2019-01-08T21:56:26.489Z,7.80
2019-01-08T21:58:52.738Z,7.70
2019-01-08T22:01:19.378Z,7.80
2019-01-08T22:03:45.657Z,7.80
2019-01-08T22:06:11.928Z,7.80
2019-01-08T22:08:38.201Z,7.80
2019-01-08T22:11:04.445Z,7.80
2019-01-08T22:13:30.709Z,7.80
2019-01-08T22:15:57.287Z,7.70
2019-01-08T22:18:23.534Z,7.70
2019-01-08T22:20:49.786Z,7.70
2019-01-08T22:23:16.048Z,7.70
2019-01-08T22:25:42.471Z,7.70
2019-01-08T22:28:08.774Z,7.70
2019-01-08T22:30:35.055Z,7.70
2019-01-08T22:33:01.317Z,7.70
2019-01-08T22:35:27.581Z,7.70
2019-01-08T22:37:53.819Z,7.70
2019-01-08T22:40:20.077Z,7.70
2019-01-08T22:42:46.205Z,7.60
2019-01-08T22:45:13.504Z,7.60
2019-01-08T22:47:39.759Z,7.50
2019-01-08T22:50:06.708Z,7.50
2019-01-08T22:52:34.827Z,7.50
2019-01-08T22:55:00.990Z,7.50
2019-01-08T22:57:27.129Z,7.50
2019-01-08T22:59:53.369Z,7.40
2019-01-08T23:02:19.509Z,7.40
2019-01-08T23:04:45.755Z,7.30
2019-01-08T23:07:12.005Z,7.30
2019-01-08T23:09:38.264Z,7.30
2019-01-08T23:12:04.506Z,7.20
2019-01-08T23:14:30.801Z,7.20
2019-01-08T23:16:57.046Z,7.20
2019-01-08T23:19:23.306Z,7.10
2019-01-08T23:21:49.552Z,7.20
2019-01-08T23:24:15.820Z,7.20
2019-01-08T23:26:42.205Z,7.20
2019-01-08T23:29:08.449Z,7.10
2019-01-08T23:31:34.717Z,7.10
2019-01-08T23:34:00.947Z,7.20
2019-01-08T23:36:27.098Z,7.20
2019-01-08T23:38:53.429Z,7.20
2019-01-08T23:41:19.667Z,7.20
2019-01-08T23:43:45.934Z,7.20
2019-01-08T23:46:12.165Z,7.20
2019-01-08T23:48:38.421Z,7.20
2019-01-08T23:51:04.683Z,7.10
2019-01-08T23:53:30.921Z,7.20
2019-01-08T23:55:58.693Z,7.20
2019-01-08T23:58:24.927Z,7.20
